TAF Text Data
IDs:
Format:
Raw Decoded Include METAR

Data at: 2204 UTC 02 Oct 2022

KLBE 021748Z 0218/0318 02009KT 1SM -RA SCT009 OVC015
  FM021900 02008KT P6SM VCSH OVC020
  FM022100 04008KT P6SM BKN050
  FM030000 05005KT P6SM SKC